createdAt,value
2023-02-18T00:01:39.844Z,47.38
2023-02-18T00:04:07.375Z,45.75
2023-02-18T00:06:36.593Z,45.67
2023-02-18T00:09:06.390Z,49.10
2023-02-18T00:11:35.966Z,49.08
2023-02-18T00:14:05.573Z,49.92
2023-02-18T00:16:33.110Z,48.95
2023-02-18T00:19:03.379Z,51.00
2023-02-18T00:21:35.099Z,51.65
2023-02-18T00:24:03.596Z,52.10
2023-02-18T00:26:31.159Z,52.95
2023-02-18T00:28:59.125Z,51.17
2023-02-18T00:31:32.196Z,52.60
2023-02-18T00:34:03.126Z,52.67
2023-02-18T00:36:31.302Z,53.28
2023-02-18T00:39:04.022Z,52.72
2023-02-18T00:41:31.969Z,54.25
2023-02-18T00:44:00.045Z,54.38
2023-02-18T00:46:28.750Z,51.22
2023-02-18T00:48:57.250Z,54.70
2023-02-18T00:51:25.782Z,58.78
2023-02-18T00:53:53.671Z,56.95
2023-02-18T00:56:21.511Z,58.30
2023-02-18T00:58:49.785Z,55.45
2023-02-18T01:01:17.690Z,59.42
2023-02-18T01:03:46.176Z,58.75
2023-02-18T01:06:15.174Z,59.30
2023-02-18T01:08:43.393Z,58.35
2023-02-18T01:11:13.080Z,58.72
2023-02-18T01:13:42.053Z,57.38
2023-02-18T01:16:10.757Z,59.45
2023-02-18T01:18:39.393Z,59.67
2023-02-18T01:21:10.417Z,60.40
2023-02-18T01:23:39.392Z,62.22
2023-02-18T01:26:07.797Z,62.53
2023-02-18T01:28:39.238Z,65.57
2023-02-18T01:31:09.198Z,64.50
2023-02-18T01:33:37.661Z,64.10
2023-02-18T01:36:06.285Z,66.88
2023-02-18T01:38:34.151Z,67.28
2023-02-18T01:41:01.863Z,66.72
2023-02-18T01:43:30.343Z,66.43
2023-02-18T01:46:19.435Z,65.80
2023-02-18T01:49:01.454Z,63.55
2023-02-18T01:51:32.473Z,61.25
2023-02-18T01:54:06.585Z,60.38
2023-02-18T01:56:45.183Z,58.90
2023-02-18T01:59:24.476Z,63.72
2023-02-18T02:01:52.889Z,64.47
2023-02-18T02:04:21.376Z,66.50
2023-02-18T02:06:48.955Z,65.97
2023-02-18T02:09:19.996Z,66.22
2023-02-18T02:12:10.826Z,67.25
2023-02-18T02:14:59.654Z,65.68
2023-02-18T02:17:46.678Z,64.57
2023-02-18T02:20:32.910Z,64.68
2023-02-18T02:23:18.542Z,62.03
2023-02-18T02:26:15.575Z,62.38
2023-02-18T02:29:04.825Z,61.95
2023-02-18T02:31:44.539Z,61.53
2023-02-18T02:34:33.142Z,59.25
2023-02-18T02:37:29.602Z,62.17
2023-02-18T02:40:12.496Z,60.38
2023-02-18T02:43:05.753Z,57.88
2023-02-18T02:45:52.085Z,56.88
2023-02-18T02:48:43.790Z,53.78
2023-02-18T02:51:44.130Z,55.38
2023-02-18T02:54:20.631Z,54.88
2023-02-18T02:56:48.682Z,57.33
2023-02-18T02:59:26.144Z,58.05
2023-02-18T03:02:13.574Z,54.90
2023-02-18T03:05:09.520Z,57.90
2023-02-18T03:07:36.977Z,53.20
2023-02-18T03:10:29.526Z,54.22
2023-02-18T03:13:26.074Z,51.47
2023-02-18T03:16:09.613Z,57.78
2023-02-18T03:18:58.230Z,59.00
2023-02-18T03:21:28.065Z,56.33
2023-02-18T03:24:30.662Z,54.55
2023-02-18T03:27:18.775Z,53.28
2023-02-18T03:29:50.606Z,52.42
2023-02-18T03:32:21.355Z,55.15
2023-02-18T03:34:53.578Z,56.38
2023-02-18T03:37:22.566Z,55.63
2023-02-18T03:39:55.525Z,56.58
2023-02-18T03:42:28.913Z,54.78
2023-02-18T03:44:56.622Z,56.05
2023-02-18T03:47:25.308Z,58.63
2023-02-18T03:49:52.752Z,57.80
2023-02-18T03:52:20.510Z,59.15
2023-02-18T03:54:48.465Z,60.13
2023-02-18T03:57:16.030Z,59.33
2023-02-18T03:59:43.666Z,63.05
2023-02-18T04:02:11.205Z,67.80
2023-02-18T04:04:38.991Z,64.18
2023-02-18T04:07:06.556Z,63.60
2023-02-18T04:09:34.124Z,66.22
2023-02-18T04:12:01.586Z,66.38
2023-02-18T04:14:29.056Z,63.88
2023-02-18T04:16:56.791Z,66.88
2023-02-18T04:19:24.322Z,68.20
2023-02-18T04:21:51.874Z,68.97
2023-02-18T04:24:19.395Z,69.55
2023-02-18T04:26:47.130Z,69.18
2023-02-18T04:29:14.928Z,68.95
2023-02-18T04:31:42.604Z,67.35
2023-02-18T04:34:10.324Z,70.72
2023-02-18T04:36:37.919Z,69.55
2023-02-18T04:39:05.442Z,67.03
2023-02-18T04:41:33.028Z,67.07
2023-02-18T04:44:00.752Z,63.35
2023-02-18T04:46:28.581Z,60.53
2023-02-18T04:48:56.237Z,62.30
2023-02-18T04:51:24.210Z,61.10
2023-02-18T04:53:51.774Z,59.60
2023-02-18T04:56:19.376Z,59.90
2023-02-18T04:58:49.920Z,58.28
2023-02-18T05:01:17.711Z,58.88
2023-02-18T05:03:46.232Z,55.13
2023-02-18T05:06:13.896Z,60.25
2023-02-18T05:08:41.452Z,58.47
2023-02-18T05:11:09.580Z,62.17
2023-02-18T05:13:37.135Z,62.70
2023-02-18T05:16:04.972Z,63.47
2023-02-18T05:18:32.485Z,64.53
2023-02-18T05:21:00.492Z,68.18
2023-02-18T05:23:28.079Z,72.60
2023-02-18T05:25:56.330Z,66.63
2023-02-18T05:28:23.907Z,67.70
2023-02-18T05:30:55.059Z,68.95
2023-02-18T05:33:22.624Z,65.65
2023-02-18T05:35:50.488Z,69.68
2023-02-18T05:38:18.063Z,68.60
2023-02-18T05:40:45.604Z,70.85
2023-02-18T05:43:13.332Z,74.40
2023-02-18T05:45:40.870Z,71.30
2023-02-18T05:48:08.644Z,72.45
2023-02-18T05:50:36.170Z,69.15
2023-02-18T05:53:03.904Z,67.22
2023-02-18T05:55:31.489Z,68.55
2023-02-18T05:57:59.024Z,68.38
2023-02-18T06:00:26.683Z,66.05
2023-02-18T06:02:54.318Z,67.20
2023-02-18T06:05:21.834Z,71.05
2023-02-18T06:07:49.682Z,71.15
2023-02-18T06:10:18.729Z,71.20
2023-02-18T06:12:47.256Z,68.68
2023-02-18T06:15:14.733Z,67.07
2023-02-18T06:17:42.276Z,69.22
2023-02-18T06:20:10.209Z,71.13
2023-02-18T06:22:37.742Z,74.03
2023-02-18T06:25:05.454Z,68.95
2023-02-18T06:27:32.908Z,71.25
2023-02-18T06:30:00.504Z,71.38
2023-02-18T06:32:28.109Z,71.70
2023-02-18T06:34:55.705Z,65.95
2023-02-18T06:37:26.255Z,69.13
2023-02-18T06:39:53.776Z,67.93
2023-02-18T06:42:21.208Z,66.03
2023-02-18T06:44:48.733Z,69.95
2023-02-18T06:47:16.283Z,68.03
2023-02-18T06:49:43.865Z,69.07
2023-02-18T06:52:11.548Z,68.22
2023-02-18T06:54:39.529Z,70.93
2023-02-18T06:57:07.726Z,71.13
2023-02-18T06:59:35.330Z,65.50
2023-02-18T07:02:07.408Z,68.55
2023-02-18T07:04:42.145Z,67.60
2023-02-18T07:07:10.250Z,66.40
2023-02-18T07:09:38.482Z,65.65
2023-02-18T07:12:24.395Z,71.13
2023-02-18T07:14:58.346Z,64.32
2023-02-18T07:17:26.044Z,70.68
2023-02-18T07:19:53.645Z,66.40
2023-02-18T07:22:21.236Z,66.57
2023-02-18T07:24:53.198Z,66.32
2023-02-18T07:27:21.703Z,64.95
2023-02-18T07:29:49.937Z,68.53
2023-02-18T07:32:20.179Z,67.55
2023-02-18T07:34:55.532Z,69.05
2023-02-18T07:37:23.384Z,66.25
2023-02-18T07:40:15.619Z,66.78
2023-02-18T07:42:44.005Z,65.80
2023-02-18T07:45:20.144Z,67.20
2023-02-18T07:47:48.069Z,67.55
2023-02-18T07:50:19.176Z,69.30
2023-02-18T07:52:46.713Z,66.65
2023-02-18T07:55:14.525Z,67.13
2023-02-18T07:58:03.776Z,68.07
2023-02-18T08:00:34.606Z,66.57
2023-02-18T08:03:09.822Z,67.63
2023-02-18T08:05:43.337Z,66.03
2023-02-18T08:08:18.659Z,63.95
2023-02-18T08:11:02.733Z,62.38
2023-02-18T08:13:34.685Z,62.35
2023-02-18T08:16:19.703Z,63.80
2023-02-18T08:18:48.840Z,61.97
2023-02-18T08:21:23.687Z,63.00
2023-02-18T08:23:51.386Z,66.13
2023-02-18T08:26:19.880Z,65.75
2023-02-18T08:28:57.153Z,65.50
2023-02-18T08:34:35.514Z,67.03
2023-02-18T08:37:31.478Z,70.13
2023-02-18T08:40:17.419Z,64.30
2023-02-18T08:45:55.350Z,68.95
2023-02-18T08:48:22.840Z,66.88
2023-02-18T08:50:53.476Z,68.85
2023-02-18T08:53:21.729Z,68.63
2023-02-18T08:56:13.291Z,70.95
2023-02-18T08:58:43.911Z,69.57
2023-02-18T09:01:13.424Z,72.05
2023-02-18T09:03:41.200Z,68.88
2023-02-18T09:06:30.712Z,70.72
2023-02-18T09:09:00.493Z,70.30
2023-02-18T09:11:30.100Z,70.57
2023-02-18T09:13:57.635Z,70.15
2023-02-18T09:16:26.320Z,72.10
2023-02-18T09:18:54.458Z,71.38
2023-02-18T09:21:23.527Z,71.35
2023-02-18T09:23:54.063Z,71.30
2023-02-18T09:26:43.060Z,68.22
2023-02-18T09:29:10.867Z,74.70
2023-02-18T09:31:39.615Z,74.40
2023-02-18T09:34:07.422Z,71.53
2023-02-18T09:36:35.354Z,73.57
2023-02-18T09:39:03.047Z,71.80
2023-02-18T09:41:48.338Z,72.93
2023-02-18T09:44:22.655Z,73.97
2023-02-18T09:47:19.058Z,72.35
2023-02-18T09:49:53.604Z,71.38
2023-02-18T09:52:25.953Z,72.95
2023-02-18T09:54:53.784Z,76.15
2023-02-18T09:57:43.125Z,75.63
2023-02-18T10:00:20.471Z,74.25
2023-02-18T10:03:00.012Z,75.45
2023-02-18T10:05:30.564Z,77.15
2023-02-18T10:08:08.128Z,73.55
2023-02-18T10:10:39.897Z,75.18
2023-02-18T10:13:15.759Z,72.93
2023-02-18T10:15:44.458Z,72.65
2023-02-18T10:18:27.438Z,73.40
2023-02-18T10:21:03.637Z,73.25
2023-02-18T10:23:34.162Z,76.55
2023-02-18T10:26:06.075Z,78.15
2023-02-18T10:28:35.411Z,77.10
2023-02-18T10:31:09.927Z,79.15
2023-02-18T10:34:06.833Z,78.70
2023-02-18T10:36:44.709Z,74.78
2023-02-18T10:39:32.537Z,78.80
2023-02-18T10:42:21.816Z,79.28
2023-02-18T10:45:23.295Z,82.72
2023-02-18T10:48:09.537Z,79.93
2023-02-18T10:50:45.391Z,83.90
2023-02-18T10:53:32.633Z,83.82
2023-02-18T10:56:01.004Z,83.05
2023-02-18T10:58:37.190Z,80.05
2023-02-18T11:01:13.454Z,82.72
2023-02-18T11:03:53.536Z,79.85
2023-02-18T11:06:40.906Z,80.05
2023-02-18T11:09:21.388Z,79.28
2023-02-18T11:11:53.681Z,80.35
2023-02-18T11:14:47.857Z,79.25
2023-02-18T11:17:29.922Z,81.18
2023-02-18T11:20:02.811Z,79.75
2023-02-18T11:22:33.328Z,77.90
2023-02-18T11:25:02.807Z,82.18
2023-02-18T11:27:44.135Z,79.78
2023-02-18T11:30:35.013Z,83.35
2023-02-18T11:33:23.605Z,80.30
2023-02-18T11:35:56.897Z,78.22
2023-02-18T11:38:35.498Z,80.53
2023-02-18T11:41:12.184Z,77.22
2023-02-18T11:43:54.652Z,79.78
2023-02-18T11:46:25.155Z,80.20
2023-02-18T11:48:53.993Z,81.78
2023-02-18T11:51:38.581Z,82.35
2023-02-18T11:54:21.909Z,79.20
2023-02-18T11:57:20.306Z,80.32
2023-02-18T11:59:50.530Z,78.55
2023-02-18T12:02:38.180Z,80.45
2023-02-18T12:05:18.301Z,80.10
2023-02-18T12:07:51.049Z,75.93
2023-02-18T12:10:38.385Z,76.43
2023-02-18T12:13:35.477Z,77.22
2023-02-18T12:16:22.298Z,77.00
2023-02-18T12:19:41.430Z,75.68
2023-02-18T12:22:29.142Z,73.95
2023-02-18T12:25:12.230Z,76.20
2023-02-18T12:28:00.521Z,75.10
2023-02-18T12:30:46.456Z,74.07
2023-02-18T13:17:45.756Z,71.68
2023-02-18T13:20:27.346Z,71.80
2023-02-18T13:22:57.217Z,70.45
2023-02-18T13:25:26.243Z,71.47
2023-02-18T13:28:10.148Z,71.65
2023-02-18T13:30:51.187Z,74.10
2023-02-18T13:33:35.927Z,67.15
2023-02-18T13:36:32.329Z,70.35
2023-02-18T13:39:08.832Z,67.68
2023-02-18T13:41:42.240Z,71.15
2023-02-18T13:44:41.169Z,69.55
2023-02-18T13:47:12.017Z,70.18
2023-02-18T13:49:43.055Z,70.57
2023-02-18T13:52:20.298Z,67.70
2023-02-18T13:54:58.582Z,66.18
2023-02-18T13:57:29.204Z,66.78
2023-02-18T14:00:05.406Z,62.92
2023-02-18T14:02:57.899Z,64.20
2023-02-18T14:05:39.788Z,66.85
2023-02-18T14:08:29.058Z,65.68
2023-02-18T14:11:17.560Z,67.97
2023-02-18T14:14:17.141Z,66.65
2023-02-18T14:17:22.669Z,64.07
2023-02-18T14:20:18.152Z,60.13
2023-02-18T14:23:19.701Z,59.25
2023-02-18T14:26:42.560Z,60.03
2023-02-18T14:29:59.691Z,63.90
2023-02-18T14:36:53.208Z,60.03
2023-02-18T14:40:09.950Z,57.10
2023-02-18T14:43:01.481Z,58.88
2023-02-18T14:46:10.444Z,60.70
2023-02-18T14:49:02.370Z,57.22
2023-02-18T14:51:59.186Z,58.85
2023-02-18T14:54:54.191Z,58.45
2023-02-18T14:57:36.835Z,59.10
2023-02-18T15:00:05.874Z,58.15
2023-02-18T15:02:40.809Z,60.13
2023-02-18T15:08:10.302Z,56.33
2023-02-18T15:10:49.471Z,58.40
2023-02-18T15:13:33.093Z,59.55
2023-02-18T15:16:20.376Z,61.33
2023-02-18T15:19:00.474Z,62.60
2023-02-18T15:21:42.796Z,63.95
2023-02-18T15:24:26.362Z,58.55
2023-02-18T15:26:59.507Z,60.47
2023-02-18T15:29:30.780Z,61.88
2023-02-18T15:31:59.640Z,60.05
2023-02-18T15:34:31.418Z,63.03
2023-02-18T15:37:05.036Z,63.90
2023-02-18T15:39:33.517Z,63.97
2023-02-18T15:42:27.569Z,61.90
2023-02-18T15:45:22.538Z,66.00
2023-02-18T15:47:55.888Z,65.57
2023-02-18T15:50:44.426Z,65.18
2023-02-18T15:53:17.282Z,64.22
2023-02-18T15:55:48.332Z,66.43
2023-02-18T15:58:22.451Z,61.22
2023-02-18T16:00:53.693Z,71.30
2023-02-18T16:04:01.903Z,65.70
2023-02-18T16:09:17.217Z,64.75
2023-02-18T16:11:52.255Z,62.58
2023-02-18T16:14:35.831Z,60.85
2023-02-18T16:17:12.046Z,67.28
2023-02-18T16:20:05.386Z,68.35
2023-02-18T16:22:43.015Z,66.65
2023-02-18T16:25:16.096Z,66.00
2023-02-18T16:28:01.710Z,58.55
2023-02-18T16:30:46.507Z,62.30
2023-02-18T16:33:34.954Z,63.22
2023-02-18T16:51:54.857Z,65.70
2023-02-18T16:55:35.545Z,65.13
2023-02-18T16:58:09.911Z,65.75
2023-02-18T17:00:44.783Z,67.63
2023-02-18T17:06:25.212Z,64.68
2023-02-18T17:12:45.275Z,64.60
2023-02-18T17:16:00.277Z,62.55
2023-02-18T17:18:27.872Z,65.10
2023-02-18T17:20:58.867Z,63.63
2023-02-18T17:23:35.525Z,63.55
2023-02-18T17:26:06.350Z,66.70
2023-02-18T17:37:56.623Z,69.18
2023-02-18T17:40:32.729Z,65.35
2023-02-18T17:43:15.793Z,65.13
2023-02-18T17:50:01.024Z,69.05
2023-02-18T17:55:54.650Z,66.85
2023-02-18T17:58:22.295Z,67.03
2023-02-18T18:00:55.472Z,68.72
2023-02-18T18:03:26.243Z,66.95
2023-02-18T18:05:54.576Z,67.45
2023-02-18T18:08:22.293Z,68.05
2023-02-18T18:10:56.097Z,67.38
2023-02-18T18:13:29.540Z,67.03
2023-02-18T18:16:02.729Z,66.97
2023-02-18T18:18:37.110Z,70.15
2023-02-18T18:21:20.782Z,66.15
2023-02-18T18:25:05.215Z,64.28
2023-02-18T18:27:36.906Z,65.55
2023-02-18T18:30:10.362Z,62.85
2023-02-18T18:32:58.539Z,64.72
2023-02-18T18:39:42.986Z,64.32
2023-02-18T18:42:12.952Z,65.28
2023-02-18T18:44:41.188Z,65.60
2023-02-18T18:47:08.902Z,65.82
2023-02-18T18:49:36.442Z,64.43
2023-02-18T18:52:04.808Z,61.72
2023-02-18T18:54:32.469Z,64.78
2023-02-18T18:57:00.225Z,65.28
2023-02-18T18:59:27.785Z,64.07
2023-02-18T19:01:55.491Z,62.25
2023-02-18T19:04:26.277Z,63.75
2023-02-18T19:06:54.218Z,63.58
2023-02-18T19:09:25.302Z,68.18
2023-02-18T19:11:53.007Z,67.40
2023-02-18T19:14:22.175Z,68.20
2023-02-18T19:16:49.804Z,68.75
2023-02-18T19:19:26.584Z,67.00
2023-02-18T19:21:54.306Z,68.55
2023-02-18T19:24:21.815Z,65.82
2023-02-18T19:26:49.397Z,65.80
2023-02-18T19:29:21.488Z,66.40
2023-02-18T19:31:51.974Z,68.82
2023-02-18T19:34:19.621Z,66.22
2023-02-18T19:36:48.162Z,63.05
2023-02-18T19:39:15.658Z,62.15
2023-02-18T19:41:43.419Z,65.07
2023-02-18T19:44:11.100Z,62.95
2023-02-18T19:46:38.593Z,62.00
2023-02-18T19:49:06.440Z,64.60
2023-02-18T19:51:34.898Z,63.75
2023-02-18T19:54:03.618Z,63.85
2023-02-18T19:56:31.328Z,63.67
2023-02-18T19:58:59.014Z,64.65
2023-02-18T20:01:27.082Z,63.90
2023-02-18T20:03:55.313Z,62.63
2023-02-18T20:06:22.929Z,63.22
2023-02-18T20:09:22.138Z,61.65
2023-02-18T20:11:52.883Z,61.35
2023-02-18T20:14:21.487Z,60.33
2023-02-18T20:16:48.966Z,62.85
2023-02-18T20:19:16.464Z,60.00
2023-02-18T20:21:44.014Z,61.72
2023-02-18T20:24:11.742Z,60.55
2023-02-18T20:26:39.567Z,63.05
2023-02-18T20:29:07.112Z,64.40
2023-02-18T20:50:21.927Z,60.65
2023-02-18T20:52:53.456Z,62.25
2023-02-18T20:55:24.440Z,64.32
2023-02-18T20:58:00.695Z,63.13
2023-02-18T21:01:16.036Z,61.78
2023-02-18T21:04:12.097Z,56.83
2023-02-18T21:06:53.799Z,57.78
2023-02-18T23:02:40.862Z,62.97
2023-02-18T23:21:06.170Z,67.80
2023-02-18T23:29:55.935Z,67.53
